sensor_id;sensor_type;location;lat;lon;timestamp;P1;durP1;ratioP1;P2;durP2;ratioP2
52610;SDS011;38727;40.130;18.292;2024-03-23T00:53:37;45.15;;;20.10;;
52610;SDS011;38727;40.130;18.292;2024-03-23T01:01:41;121.20;;;22.17;;
52610;SDS011;38727;40.130;18.292;2024-03-23T01:05:04;68.78;;;21.00;;
52610;SDS011;38727;40.130;18.292;2024-03-23T01:12:37;137.68;;;20.92;;
52610;SDS011;38727;40.130;18.292;2024-03-23T02:04:53;29.15;;;13.13;;
52610;SDS011;38727;40.130;18.292;2024-03-23T05:09:04;23.65;;;6.38;;
52610;SDS011;38727;40.130;18.292;2024-03-23T05:17:49;26.75;;;6.63;;
52610;SDS011;38727;40.130;18.292;2024-03-23T05:36:15;33.25;;;6.88;;
52610;SDS011;38727;40.130;18.292;2024-03-23T05:39:32;34.80;;;7.45;;
52610;SDS011;38727;40.130;18.292;2024-03-23T06:14:29;46.08;;;7.05;;
52610;SDS011;38727;40.130;18.292;2024-03-23T06:32:37;31.58;;;5.57;;
52610;SDS011;38727;40.130;18.292;2024-03-23T06:36:24;15.48;;;5.65;;
52610;SDS011;38727;40.130;18.292;2024-03-23T06:47:05;33.35;;;8.65;;
52610;SDS011;38727;40.130;18.292;2024-03-23T08:01:54;7.85;;;4.72;;
52610;SDS011;38727;40.130;18.292;2024-03-23T08:09:58;5.47;;;4.03;;
52610;SDS011;38727;40.130;18.292;2024-03-23T08:13:55;7.25;;;4.57;;
52610;SDS011;38727;40.130;18.292;2024-03-23T08:21:46;8.85;;;4.25;;
52610;SDS011;38727;40.130;18.292;2024-03-23T08:43:30;8.32;;;2.70;;
52610;SDS011;38727;40.130;18.292;2024-03-23T09:22:25;6.65;;;2.80;;
52610;SDS011;38727;40.130;18.292;2024-03-23T09:30:19;5.90;;;3.28;;
52610;SDS011;38727;40.130;18.292;2024-03-23T10:48:39;6.45;;;2.65;;
52610;SDS011;38727;40.130;18.292;2024-03-23T10:52:03;4.90;;;2.45;;
52610;SDS011;38727;40.130;18.292;2024-03-23T11:02:06;6.30;;;3.33;;
52610;SDS011;38727;40.130;18.292;2024-03-23T11:08:29;9.27;;;4.85;;
52610;SDS011;38727;40.130;18.292;2024-03-23T11:11:34;8.55;;;3.85;;
52610;SDS011;38727;40.130;18.292;2024-03-23T11:15:29;21.25;;;5.20;;
52610;SDS011;38727;40.130;18.292;2024-03-23T11:18:41;6.50;;;3.33;;
52610;SDS011;38727;40.130;18.292;2024-03-23T11:46:24;5.60;;;3.00;;
52610;SDS011;38727;40.130;18.292;2024-03-23T11:53:29;7.80;;;4.10;;
52610;SDS011;38727;40.130;18.292;2024-03-23T12:00:48;7.20;;;3.00;;
52610;SDS011;38727;40.130;18.292;2024-03-23T12:03:29;6.82;;;3.25;;
52610;SDS011;38727;40.130;18.292;2024-03-23T12:06:10;5.63;;;3.42;;
52610;SDS011;38727;40.130;18.292;2024-03-23T12:09:45;7.03;;;3.97;;
52610;SDS011;38727;40.130;18.292;2024-03-23T12:14:14;9.63;;;4.22;;
52610;SDS011;38727;40.130;18.292;2024-03-23T12:25:57;7.97;;;4.03;;
52610;SDS011;38727;40.130;18.292;2024-03-23T12:29:27;5.67;;;3.37;;
52610;SDS011;38727;40.130;18.292;2024-03-23T12:33:15;5.68;;;3.65;;
52610;SDS011;38727;40.130;18.292;2024-03-23T12:42:59;7.47;;;3.70;;
52610;SDS011;38727;40.130;18.292;2024-03-23T12:45:38;4.97;;;3.63;;
52610;SDS011;38727;40.130;18.292;2024-03-23T12:55:46;10.88;;;4.22;;
52610;SDS011;38727;40.130;18.292;2024-03-23T12:58:48;6.05;;;3.92;;
52610;SDS011;38727;40.130;18.292;2024-03-23T13:01:54;6.43;;;3.90;;
52610;SDS011;38727;40.130;18.292;2024-03-23T13:04:53;6.72;;;3.60;;
52610;SDS011;38727;40.130;18.292;2024-03-23T13:11:26;6.20;;;4.28;;
52610;SDS011;38727;40.130;18.292;2024-03-23T13:14:41;6.40;;;4.40;;
52610;SDS011;38727;40.130;18.292;2024-03-23T13:20:53;12.77;;;5.57;;
52610;SDS011;38727;40.130;18.292;2024-03-23T13:23:25;7.72;;;4.15;;
52610;SDS011;38727;40.130;18.292;2024-03-23T13:25:55;6.40;;;4.32;;
52610;SDS011;38727;40.130;18.292;2024-03-23T13:28:25;6.22;;;3.53;;
52610;SDS011;38727;40.130;18.292;2024-03-23T13:30:53;5.32;;;3.33;;
52610;SDS011;38727;40.130;18.292;2024-03-23T13:33:23;5.22;;;3.80;;
52610;SDS011;38727;40.130;18.292;2024-03-23T13:35:52;6.40;;;3.85;;
52610;SDS011;38727;40.130;18.292;2024-03-23T13:38:22;5.65;;;3.58;;
52610;SDS011;38727;40.130;18.292;2024-03-23T13:40:51;5.05;;;3.75;;
52610;SDS011;38727;40.130;18.292;2024-03-23T13:43:23;12.02;;;4.57;;
52610;SDS011;38727;40.130;18.292;2024-03-23T13:45:55;6.85;;;4.28;;
52610;SDS011;38727;40.130;18.292;2024-03-23T13:48:26;6.22;;;3.72;;
52610;SDS011;38727;40.130;18.292;2024-03-23T13:50:59;8.90;;;4.93;;
52610;SDS011;38727;40.130;18.292;2024-03-23T13:53:30;10.13;;;5.22;;
52610;SDS011;38727;40.130;18.292;2024-03-23T13:55:59;10.68;;;5.07;;
52610;SDS011;38727;40.130;18.292;2024-03-23T13:58:31;7.32;;;3.30;;
52610;SDS011;38727;40.130;18.292;2024-03-23T14:01:00;7.88;;;4.45;;
52610;SDS011;38727;40.130;18.292;2024-03-23T14:03:30;5.75;;;3.08;;
52610;SDS011;38727;40.130;18.292;2024-03-23T14:05:59;5.75;;;3.00;;
52610;SDS011;38727;40.130;18.292;2024-03-23T14:08:30;5.05;;;3.65;;
52610;SDS011;38727;40.130;18.292;2024-03-23T14:11:00;6.35;;;2.85;;
52610;SDS011;38727;40.130;18.292;2024-03-23T14:13:32;5.20;;;3.20;;
52610;SDS011;38727;40.130;18.292;2024-03-23T14:16:00;5.78;;;3.00;;
52610;SDS011;38727;40.130;18.292;2024-03-23T14:18:31;4.35;;;2.50;;
52610;SDS011;38727;40.130;18.292;2024-03-23T14:21:00;5.38;;;2.92;;
52610;SDS011;38727;40.130;18.292;2024-03-23T14:23:30;6.43;;;3.22;;
52610;SDS011;38727;40.130;18.292;2024-03-23T14:25:59;7.88;;;2.88;;
52610;SDS011;38727;40.130;18.292;2024-03-23T14:28:29;7.68;;;3.10;;
52610;SDS011;38727;40.130;18.292;2024-03-23T14:30:59;4.78;;;3.03;;
52610;SDS011;38727;40.130;18.292;2024-03-23T14:33:28;3.20;;;2.42;;
52610;SDS011;38727;40.130;18.292;2024-03-23T14:35:56;10.60;;;3.08;;
52610;SDS011;38727;40.130;18.292;2024-03-23T14:38:26;2.80;;;2.15;;
52610;SDS011;38727;40.130;18.292;2024-03-23T14:40:57;6.22;;;2.70;;
52610;SDS011;38727;40.130;18.292;2024-03-23T14:43:32;5.35;;;2.53;;
52610;SDS011;38727;40.130;18.292;2024-03-23T14:48:46;3.78;;;1.92;;
52610;SDS011;38727;40.130;18.292;2024-03-23T14:51:15;3.30;;;2.10;;
52610;SDS011;38727;40.130;18.292;2024-03-23T14:53:45;3.35;;;2.00;;
52610;SDS011;38727;40.130;18.292;2024-03-23T14:56:13;5.07;;;2.50;;
52610;SDS011;38727;40.130;18.292;2024-03-23T14:58:44;4.15;;;2.00;;
52610;SDS011;38727;40.130;18.292;2024-03-23T15:01:13;3.55;;;2.20;;
52610;SDS011;38727;40.130;18.292;2024-03-23T15:03:44;4.68;;;2.42;;
52610;SDS011;38727;40.130;18.292;2024-03-23T15:06:13;2.92;;;1.98;;
52610;SDS011;38727;40.130;18.292;2024-03-23T15:08:42;4.43;;;2.40;;
52610;SDS011;38727;40.130;18.292;2024-03-23T15:11:10;4.72;;;2.40;;
52610;SDS011;38727;40.130;18.292;2024-03-23T15:13:39;3.08;;;2.20;;
52610;SDS011;38727;40.130;18.292;2024-03-23T15:16:07;3.78;;;2.08;;
52610;SDS011;38727;40.130;18.292;2024-03-23T15:18:37;3.13;;;2.33;;
52610;SDS011;38727;40.130;18.292;2024-03-23T15:21:07;4.20;;;2.28;;
52610;SDS011;38727;40.130;18.292;2024-03-23T15:23:37;4.45;;;2.10;;
52610;SDS011;38727;40.130;18.292;2024-03-23T15:26:06;2.28;;;1.80;;
52610;SDS011;38727;40.130;18.292;2024-03-23T15:28:35;5.68;;;3.55;;
52610;SDS011;38727;40.130;18.292;2024-03-23T15:31:08;4.30;;;2.20;;
52610;SDS011;38727;40.130;18.292;2024-03-23T15:33:38;4.90;;;2.67;;
52610;SDS011;38727;40.130;18.292;2024-03-23T15:36:07;5.85;;;2.35;;
52610;SDS011;38727;40.130;18.292;2024-03-23T15:38:37;3.63;;;2.30;;
52610;SDS011;38727;40.130;18.292;2024-03-23T15:41:08;5.53;;;2.60;;
52610;SDS011;38727;40.130;18.292;2024-03-23T15:43:38;6.13;;;2.70;;
52610;SDS011;38727;40.130;18.292;2024-03-23T15:46:06;4.35;;;2.88;;
52610;SDS011;38727;40.130;18.292;2024-03-23T15:48:37;5.50;;;2.88;;
52610;SDS011;38727;40.130;18.292;2024-03-23T15:51:07;6.05;;;3.13;;
52610;SDS011;38727;40.130;18.292;2024-03-23T15:53:38;4.25;;;2.70;;
52610;SDS011;38727;40.130;18.292;2024-03-23T15:56:06;5.65;;;2.90;;
52610;SDS011;38727;40.130;18.292;2024-03-23T15:58:37;4.05;;;2.47;;
52610;SDS011;38727;40.130;18.292;2024-03-23T16:01:05;3.97;;;2.85;;
52610;SDS011;38727;40.130;18.292;2024-03-23T16:03:37;5.23;;;2.37;;
52610;SDS011;38727;40.130;18.292;2024-03-23T16:06:08;5.28;;;2.78;;
52610;SDS011;38727;40.130;18.292;2024-03-23T16:08:37;4.63;;;2.38;;
52610;SDS011;38727;40.130;18.292;2024-03-23T16:11:06;5.53;;;2.90;;
52610;SDS011;38727;40.130;18.292;2024-03-23T16:13:35;3.63;;;2.60;;
52610;SDS011;38727;40.130;18.292;2024-03-23T16:16:03;5.88;;;2.83;;
52610;SDS011;38727;40.130;18.292;2024-03-23T16:18:34;5.07;;;2.75;;
52610;SDS011;38727;40.130;18.292;2024-03-23T16:21:05;4.68;;;2.72;;
52610;SDS011;38727;40.130;18.292;2024-03-23T16:23:36;4.55;;;2.50;;
52610;SDS011;38727;40.130;18.292;2024-03-23T16:26:05;3.15;;;2.75;;
52610;SDS011;38727;40.130;18.292;2024-03-23T16:28:35;4.45;;;2.55;;
52610;SDS011;38727;40.130;18.292;2024-03-23T16:31:03;4.93;;;2.65;;
52610;SDS011;38727;40.130;18.292;2024-03-23T16:33:34;3.03;;;2.53;;
52610;SDS011;38727;40.130;18.292;2024-03-23T16:36:04;5.28;;;3.22;;
52610;SDS011;38727;40.130;18.292;2024-03-23T16:38:34;3.58;;;2.47;;
52610;SDS011;38727;40.130;18.292;2024-03-23T16:41:05;5.55;;;2.85;;
52610;SDS011;38727;40.130;18.292;2024-03-23T16:43:36;3.88;;;2.55;;
52610;SDS011;38727;40.130;18.292;2024-03-23T16:46:05;4.13;;;2.30;;
52610;SDS011;38727;40.130;18.292;2024-03-23T16:48:39;5.18;;;2.65;;
52610;SDS011;38727;40.130;18.292;2024-03-23T16:51:07;5.13;;;3.05;;
52610;SDS011;38727;40.130;18.292;2024-03-23T16:53:39;4.85;;;2.45;;
52610;SDS011;38727;40.130;18.292;2024-03-23T16:56:09;6.38;;;2.90;;
52610;SDS011;38727;40.130;18.292;2024-03-23T16:58:39;6.63;;;3.55;;
52610;SDS011;38727;40.130;18.292;2024-03-23T17:01:08;5.82;;;3.38;;
52610;SDS011;38727;40.130;18.292;2024-03-23T17:03:48;7.20;;;4.80;;
52610;SDS011;38727;40.130;18.292;2024-03-23T17:06:17;10.88;;;6.00;;
52610;SDS011;38727;40.130;18.292;2024-03-23T17:08:51;16.27;;;9.13;;
52610;SDS011;38727;40.130;18.292;2024-03-23T17:11:20;27.25;;;15.07;;
52610;SDS011;38727;40.130;18.292;2024-03-23T17:13:49;17.55;;;10.35;;
52610;SDS011;38727;40.130;18.292;2024-03-23T17:16:21;10.10;;;7.10;;
52610;SDS011;38727;40.130;18.292;2024-03-23T17:18:50;9.15;;;5.43;;
52610;SDS011;38727;40.130;18.292;2024-03-23T17:21:18;14.48;;;5.35;;
52610;SDS011;38727;40.130;18.292;2024-03-23T17:23:47;10.20;;;6.53;;
52610;SDS011;38727;40.130;18.292;2024-03-23T17:26:16;21.25;;;13.73;;
52610;SDS011;38727;40.130;18.292;2024-03-23T17:31:17;45.20;;;27.35;;
52610;SDS011;38727;40.130;18.292;2024-03-23T17:33:49;57.75;;;31.88;;
52610;SDS011;38727;40.130;18.292;2024-03-23T17:36:17;75.93;;;42.60;;
52610;SDS011;38727;40.130;18.292;2024-03-23T17:38:53;102.40;;;54.88;;
52610;SDS011;38727;40.130;18.292;2024-03-23T17:41:24;66.57;;;35.85;;
52610;SDS011;38727;40.130;18.292;2024-03-23T17:43:54;44.65;;;24.75;;
52610;SDS011;38727;40.130;18.292;2024-03-23T17:46:23;45.05;;;24.23;;
52610;SDS011;38727;40.130;18.292;2024-03-23T17:48:53;40.28;;;23.13;;
52610;SDS011;38727;40.130;18.292;2024-03-23T17:51:22;40.45;;;25.02;;
52610;SDS011;38727;40.130;18.292;2024-03-23T17:53:52;44.90;;;26.45;;
52610;SDS011;38727;40.130;18.292;2024-03-23T17:56:20;53.15;;;27.63;;
52610;SDS011;38727;40.130;18.292;2024-03-23T17:58:51;51.70;;;27.85;;
52610;SDS011;38727;40.130;18.292;2024-03-23T18:01:20;44.00;;;23.67;;
52610;SDS011;38727;40.130;18.292;2024-03-23T18:03:50;52.80;;;27.23;;
52610;SDS011;38727;40.130;18.292;2024-03-23T18:06:19;60.85;;;35.67;;
52610;SDS011;38727;40.130;18.292;2024-03-23T18:08:49;25.65;;;14.38;;
52610;SDS011;38727;40.130;18.292;2024-03-23T18:11:17;16.10;;;10.57;;
52610;SDS011;38727;40.130;18.292;2024-03-23T18:13:47;11.63;;;7.43;;
52610;SDS011;38727;40.130;18.292;2024-03-23T18:16:17;10.27;;;6.18;;
52610;SDS011;38727;40.130;18.292;2024-03-23T18:18:47;9.60;;;5.60;;
52610;SDS011;38727;40.130;18.292;2024-03-23T18:21:15;12.25;;;7.35;;
52610;SDS011;38727;40.130;18.292;2024-03-23T18:23:45;14.95;;;8.15;;
52610;SDS011;38727;40.130;18.292;2024-03-23T18:26:14;11.05;;;7.15;;
52610;SDS011;38727;40.130;18.292;2024-03-23T18:28:47;12.77;;;7.82;;
52610;SDS011;38727;40.130;18.292;2024-03-23T18:31:19;11.32;;;7.43;;
52610;SDS011;38727;40.130;18.292;2024-03-23T18:33:50;11.10;;;7.70;;
52610;SDS011;38727;40.130;18.292;2024-03-23T18:36:18;12.63;;;9.27;;
52610;SDS011;38727;40.130;18.292;2024-03-23T18:38:48;13.10;;;8.43;;
52610;SDS011;38727;40.130;18.292;2024-03-23T18:41:16;16.27;;;8.70;;
52610;SDS011;38727;40.130;18.292;2024-03-23T18:43:48;13.15;;;8.35;;
52610;SDS011;38727;40.130;18.292;2024-03-23T18:46:16;15.20;;;8.05;;
52610;SDS011;38727;40.130;18.292;2024-03-23T18:51:17;12.00;;;7.43;;
52610;SDS011;38727;40.130;18.292;2024-03-23T18:53:47;13.52;;;8.73;;
52610;SDS011;38727;40.130;18.292;2024-03-23T18:56:15;13.43;;;8.82;;
52610;SDS011;38727;40.130;18.292;2024-03-23T18:58:45;12.57;;;9.23;;
52610;SDS011;38727;40.130;18.292;2024-03-23T19:01:15;13.40;;;9.43;;
52610;SDS011;38727;40.130;18.292;2024-03-23T19:03:48;12.77;;;8.07;;
52610;SDS011;38727;40.130;18.292;2024-03-23T19:06:17;15.85;;;9.32;;
52610;SDS011;38727;40.130;18.292;2024-03-23T19:08:45;12.93;;;8.82;;
52610;SDS011;38727;40.130;18.292;2024-03-23T19:11:13;17.50;;;9.20;;
52610;SDS011;38727;40.130;18.292;2024-03-23T19:13:43;13.35;;;8.38;;
52610;SDS011;38727;40.130;18.292;2024-03-23T19:16:12;12.35;;;8.70;;
52610;SDS011;38727;40.130;18.292;2024-03-23T19:18:44;15.65;;;7.93;;
52610;SDS011;38727;40.130;18.292;2024-03-23T19:21:15;12.45;;;8.35;;
52610;SDS011;38727;40.130;18.292;2024-03-23T19:23:44;13.05;;;8.05;;
52610;SDS011;38727;40.130;18.292;2024-03-23T19:26:13;12.13;;;7.57;;
52610;SDS011;38727;40.130;18.292;2024-03-23T19:28:42;11.68;;;7.00;;
52610;SDS011;38727;40.130;18.292;2024-03-23T19:31:14;11.23;;;6.70;;
52610;SDS011;38727;40.130;18.292;2024-03-23T19:33:45;14.40;;;8.20;;
52610;SDS011;38727;40.130;18.292;2024-03-23T19:36:14;10.65;;;7.60;;
52610;SDS011;38727;40.130;18.292;2024-03-23T19:38:44;12.10;;;8.15;;
52610;SDS011;38727;40.130;18.292;2024-03-23T19:41:13;12.57;;;8.38;;
52610;SDS011;38727;40.130;18.292;2024-03-23T19:43:44;10.85;;;6.88;;
52610;SDS011;38727;40.130;18.292;2024-03-23T19:46:13;13.13;;;7.07;;
52610;SDS011;38727;40.130;18.292;2024-03-23T19:48:43;11.02;;;6.90;;
52610;SDS011;38727;40.130;18.292;2024-03-23T19:51:12;13.07;;;7.68;;
52610;SDS011;38727;40.130;18.292;2024-03-23T19:53:44;10.00;;;7.05;;
52610;SDS011;38727;40.130;18.292;2024-03-23T19:56:12;10.05;;;6.90;;
52610;SDS011;38727;40.130;18.292;2024-03-23T19:58:43;12.38;;;6.72;;
52610;SDS011;38727;40.130;18.292;2024-03-23T20:01:13;13.30;;;6.70;;
52610;SDS011;38727;40.130;18.292;2024-03-23T20:03:44;14.10;;;7.25;;
52610;SDS011;38727;40.130;18.292;2024-03-23T20:06:12;9.98;;;7.00;;
52610;SDS011;38727;40.130;18.292;2024-03-23T20:08:44;11.27;;;6.72;;
52610;SDS011;38727;40.130;18.292;2024-03-23T20:11:12;9.45;;;6.00;;
52610;SDS011;38727;40.130;18.292;2024-03-23T20:13:41;10.23;;;5.93;;
52610;SDS011;38727;40.130;18.292;2024-03-23T20:16:09;11.32;;;6.57;;
52610;SDS011;38727;40.130;18.292;2024-03-23T20:18:39;9.75;;;6.10;;
52610;SDS011;38727;40.130;18.292;2024-03-23T20:21:07;10.93;;;6.43;;
52610;SDS011;38727;40.130;18.292;2024-03-23T20:23:38;9.23;;;5.88;;
52610;SDS011;38727;40.130;18.292;2024-03-23T20:26:08;14.60;;;6.75;;
52610;SDS011;38727;40.130;18.292;2024-03-23T20:28:39;12.70;;;6.82;;
52610;SDS011;38727;40.130;18.292;2024-03-23T20:31:07;10.68;;;6.50;;
52610;SDS011;38727;40.130;18.292;2024-03-23T20:33:36;10.23;;;6.00;;
52610;SDS011;38727;40.130;18.292;2024-03-23T20:36:04;9.73;;;5.57;;
52610;SDS011;38727;40.130;18.292;2024-03-23T20:38:36;8.07;;;4.85;;
52610;SDS011;38727;40.130;18.292;2024-03-23T20:41:05;10.02;;;5.53;;
52610;SDS011;38727;40.130;18.292;2024-03-23T20:43:35;7.95;;;5.28;;
52610;SDS011;38727;40.130;18.292;2024-03-23T20:46:08;15.80;;;6.70;;
52610;SDS011;38727;40.130;18.292;2024-03-23T20:48:38;12.80;;;5.50;;
52610;SDS011;38727;40.130;18.292;2024-03-23T20:51:09;10.93;;;5.93;;
52610;SDS011;38727;40.130;18.292;2024-03-23T20:53:40;10.80;;;6.05;;
52610;SDS011;38727;40.130;18.292;2024-03-23T20:56:10;9.07;;;5.72;;
52610;SDS011;38727;40.130;18.292;2024-03-23T20:58:40;9.40;;;5.03;;
52610;SDS011;38727;40.130;18.292;2024-03-23T21:01:09;8.70;;;5.05;;
52610;SDS011;38727;40.130;18.292;2024-03-23T21:03:38;13.40;;;6.75;;
52610;SDS011;38727;40.130;18.292;2024-03-23T21:06:07;10.88;;;6.20;;
52610;SDS011;38727;40.130;18.292;2024-03-23T21:08:35;13.10;;;6.10;;
52610;SDS011;38727;40.130;18.292;2024-03-23T21:11:06;11.15;;;6.47;;
52610;SDS011;38727;40.130;18.292;2024-03-23T21:13:35;17.30;;;7.05;;
52610;SDS011;38727;40.130;18.292;2024-03-23T21:16:04;9.85;;;6.35;;
52610;SDS011;38727;40.130;18.292;2024-03-23T21:18:33;11.02;;;6.93;;
52610;SDS011;38727;40.130;18.292;2024-03-23T21:21:04;12.95;;;7.10;;
52610;SDS011;38727;40.130;18.292;2024-03-23T21:23:34;12.10;;;6.38;;
52610;SDS011;38727;40.130;18.292;2024-03-23T21:26:04;9.15;;;5.53;;
52610;SDS011;38727;40.130;18.292;2024-03-23T21:28:36;12.93;;;7.00;;
52610;SDS011;38727;40.130;18.292;2024-03-23T21:31:05;11.85;;;7.05;;
52610;SDS011;38727;40.130;18.292;2024-03-23T21:33:34;10.45;;;6.38;;
52610;SDS011;38727;40.130;18.292;2024-03-23T21:36:04;10.82;;;6.63;;
52610;SDS011;38727;40.130;18.292;2024-03-23T21:38:32;10.27;;;5.63;;
52610;SDS011;38727;40.130;18.292;2024-03-23T21:41:01;10.57;;;6.45;;
52610;SDS011;38727;40.130;18.292;2024-03-23T21:43:30;11.55;;;6.75;;
52610;SDS011;38727;40.130;18.292;2024-03-23T21:46:01;11.70;;;6.80;;
52610;SDS011;38727;40.130;18.292;2024-03-23T21:48:31;10.32;;;6.75;;
52610;SDS011;38727;40.130;18.292;2024-03-23T21:51:04;13.05;;;7.32;;
52610;SDS011;38727;40.130;18.292;2024-03-23T21:53:32;10.43;;;6.25;;
52610;SDS011;38727;40.130;18.292;2024-03-23T21:56:02;8.27;;;6.53;;
52610;SDS011;38727;40.130;18.292;2024-03-23T21:58:33;12.45;;;6.43;;
52610;SDS011;38727;40.130;18.292;2024-03-23T22:01:03;9.20;;;6.30;;
52610;SDS011;38727;40.130;18.292;2024-03-23T22:03:32;9.07;;;6.00;;
52610;SDS011;38727;40.130;18.292;2024-03-23T22:06:02;14.30;;;6.97;;
52610;SDS011;38727;40.130;18.292;2024-03-23T22:08:31;13.40;;;7.38;;
52610;SDS011;38727;40.130;18.292;2024-03-23T22:11:00;17.40;;;6.82;;
52610;SDS011;38727;40.130;18.292;2024-03-23T22:13:28;13.15;;;6.63;;
52610;SDS011;38727;40.130;18.292;2024-03-23T22:15:59;15.25;;;7.22;;
52610;SDS011;38727;40.130;18.292;2024-03-23T22:18:27;13.85;;;7.70;;
52610;SDS011;38727;40.130;18.292;2024-03-23T22:20:57;14.90;;;7.80;;
52610;SDS011;38727;40.130;18.292;2024-03-23T22:23:25;12.38;;;7.18;;
52610;SDS011;38727;40.130;18.292;2024-03-23T22:25:55;9.73;;;6.80;;
52610;SDS011;38727;40.130;18.292;2024-03-23T22:28:23;14.30;;;7.50;;
52610;SDS011;38727;40.130;18.292;2024-03-23T22:30:53;14.23;;;8.05;;
52610;SDS011;38727;40.130;18.292;2024-03-23T22:33:24;10.93;;;6.93;;
52610;SDS011;38727;40.130;18.292;2024-03-23T22:35:54;11.95;;;7.28;;
52610;SDS011;38727;40.130;18.292;2024-03-23T22:38:22;13.15;;;7.32;;
52610;SDS011;38727;40.130;18.292;2024-03-23T22:40:54;11.13;;;7.63;;
52610;SDS011;38727;40.130;18.292;2024-03-23T22:43:23;11.07;;;7.63;;
52610;SDS011;38727;40.130;18.292;2024-03-23T22:45:54;14.93;;;7.13;;
52610;SDS011;38727;40.130;18.292;2024-03-23T22:48:24;11.48;;;6.53;;
52610;SDS011;38727;40.130;18.292;2024-03-23T22:50:54;10.55;;;6.15;;
52610;SDS011;38727;40.130;18.292;2024-03-23T22:53:24;10.73;;;6.15;;
52610;SDS011;38727;40.130;18.292;2024-03-23T22:55:55;12.35;;;7.57;;
52610;SDS011;38727;40.130;18.292;2024-03-23T22:58:25;12.23;;;6.60;;
52610;SDS011;38727;40.130;18.292;2024-03-23T23:00:54;13.52;;;7.00;;
52610;SDS011;38727;40.130;18.292;2024-03-23T23:03:26;12.90;;;7.38;;
52610;SDS011;38727;40.130;18.292;2024-03-23T23:05:59;11.32;;;6.68;;
52610;SDS011;38727;40.130;18.292;2024-03-23T23:08:31;10.02;;;6.60;;
52610;SDS011;38727;40.130;18.292;2024-03-23T23:11:02;19.17;;;7.68;;
52610;SDS011;38727;40.130;18.292;2024-03-23T23:13:32;12.68;;;7.05;;
52610;SDS011;38727;40.130;18.292;2024-03-23T23:16:02;13.77;;;7.05;;
52610;SDS011;38727;40.130;18.292;2024-03-23T23:18:33;14.45;;;6.25;;
52610;SDS011;38727;40.130;18.292;2024-03-23T23:21:02;13.52;;;7.13;;
52610;SDS011;38727;40.130;18.292;2024-03-23T23:23:31;9.88;;;7.05;;
52610;SDS011;38727;40.130;18.292;2024-03-23T23:26:01;12.52;;;6.53;;
52610;SDS011;38727;40.130;18.292;2024-03-23T23:28:29;9.32;;;5.88;;
52610;SDS011;38727;40.130;18.292;2024-03-23T23:31:00;13.30;;;7.13;;
52610;SDS011;38727;40.130;18.292;2024-03-23T23:33:29;10.38;;;6.80;;
52610;SDS011;38727;40.130;18.292;2024-03-23T23:36:00;34.42;;;7.00;;
52610;SDS011;38727;40.130;18.292;2024-03-23T23:38:27;10.77;;;6.20;;
52610;SDS011;38727;40.130;18.292;2024-03-23T23:40:57;9.75;;;6.72;;
52610;SDS011;38727;40.130;18.292;2024-03-23T23:43:25;12.65;;;7.13;;
52610;SDS011;38727;40.130;18.292;2024-03-23T23:45:55;14.98;;;6.88;;
52610;SDS011;38727;40.130;18.292;2024-03-23T23:48:26;13.27;;;6.50;;
52610;SDS011;38727;40.130;18.292;2024-03-23T23:50:56;10.25;;;6.40;;
52610;SDS011;38727;40.130;18.292;2024-03-23T23:53:26;11.52;;;6.90;;
52610;SDS011;38727;40.130;18.292;2024-03-23T23:55:57;12.45;;;6.78;;
52610;SDS011;38727;40.130;18.292;2024-03-23T23:58:25;9.60;;;6.22;;
